Time;durP1;ratioP1;P1;durP2;ratioP2;P2;SDS_P1;SDS_P2;PMS_P1;PMS_P2;Temp;Humidity;BMP_temperature;BMP_pressure;BME280_temperature;BME280_humidity;BME280_pressure;Samples;Min_cycle;Max_cycle;Signal;HPM_P1;HPM_P2
2022/02/12 00:01:49;;;;;;;4.85;2.05;;;;;;;;;;5097345;28;20030;-67
2022/02/12 00:04:16;;;;;;;3.75;2.47;;;;;;;;;;5115639;28;20072;-64
2022/02/12 00:06:42;;;;;;;5.53;2.30;;;;;;;;;;5115907;28;20042;-64
2022/02/12 00:09:08;;;;;;;2.45;2.25;;;;;;;;;;5097322;28;20023;-65
2022/02/12 00:11:34;;;;;;;4.32;2.67;;;;;;;;;;5115797;28;20432;-64
2022/02/12 00:14:00;;;;;;;4.18;2.65;;;;;;;;;;5096977;28;20058;-64
2022/02/12 00:16:27;;;;;;;4.93;2.65;;;;;;;;;;5097141;28;20478;-64
2022/02/12 00:18:53;;;;;;;2.63;1.95;;;;;;;;;;5115444;28;20063;-64
2022/02/12 00:21:24;;;;;;;9.25;3.65;;;;;;;;;;5096969;28;20490;-65
2022/02/12 00:23:50;;;;;;;5.93;3.10;;;;;;;;;;5115387;28;20483;-63
2022/02/12 00:26:16;;;;;;;6.30;3.42;;;;;;;;;;5115487;28;20027;-65
2022/02/12 00:28:43;;;;;;;4.68;2.95;;;;;;;;;;5115245;28;20028;-64
2022/02/12 00:31:10;;;;;;;2.78;1.83;;;;;;;;;;5115156;28;20448;-65
2022/02/12 00:33:36;;;;;;;2.92;1.90;;;;;;;;;;5096837;28;20027;-65
2022/02/12 00:36:02;;;;;;;1.80;1.65;;;;;;;;;;5113928;28;20031;-66
2022/02/12 00:38:29;;;;;;;2.88;1.58;;;;;;;;;;5096767;28;20127;-64
2022/02/12 00:40:55;;;;;;;3.72;2.00;;;;;;;;;;5114967;28;20467;-64
2022/02/12 00:43:21;;;;;;;3.50;1.95;;;;;;;;;;5115165;28;20107;-64
2022/02/12 00:45:48;;;;;;;4.72;2.60;;;;;;;;;;5096664;28;20031;-64
2022/02/12 00:48:15;;;;;;;4.20;2.40;;;;;;;;;;5114933;28;20028;-64
2022/02/12 00:50:41;;;;;;;4.68;2.38;;;;;;;;;;5115039;28;20106;-63
2022/02/12 00:53:07;;;;;;;4.38;2.05;;;;;;;;;;5115047;28;20416;-63
2022/02/12 00:55:34;;;;;;;5.32;2.03;;;;;;;;;;5114698;28;20047;-63
2022/02/12 00:58:00;;;;;;;3.60;1.90;;;;;;;;;;5114661;28;20097;-66
2022/02/12 01:00:26;;;;;;;4.57;2.22;;;;;;;;;;5114535;28;20115;-62
2022/02/12 01:02:52;;;;;;;4.95;2.28;;;;;;;;;;5114490;28;20070;-62
2022/02/12 01:05:18;;;;;;;4.63;2.58;;;;;;;;;;5096176;28;20051;-64
2022/02/12 01:07:45;;;;;;;7.47;3.58;;;;;;;;;;5114106;28;20099;-66
2022/02/12 01:10:11;;;;;;;16.10;6.38;;;;;;;;;;5096102;28;20033;-65
2022/02/12 01:12:37;;;;;;;8.90;4.72;;;;;;;;;;5114313;28;20039;-67
2022/02/12 01:15:04;;;;;;;10.60;4.18;;;;;;;;;;5114250;28;20135;-64
2022/02/12 01:17:30;;;;;;;6.72;3.55;;;;;;;;;;5095974;28;20047;-65
2022/02/12 01:19:57;;;;;;;4.82;2.33;;;;;;;;;;5095961;28;20030;-64
2022/02/12 01:22:24;;;;;;;5.75;2.35;;;;;;;;;;5114084;28;20501;-66
2022/02/12 01:24:51;;;;;;;5.30;2.10;;;;;;;;;;5095882;28;20035;-64
2022/02/12 01:27:17;;;;;;;4.55;2.17;;;;;;;;;;5114080;28;20024;-66
2022/02/12 01:29:44;;;;;;;4.55;1.85;;;;;;;;;;5114085;28;20042;-65
2022/02/12 01:32:10;;;;;;;4.13;2.42;;;;;;;;;;5114019;28;20031;-65
2022/02/12 01:34:37;;;;;;;4.32;2.28;;;;;;;;;;5113935;28;20031;-66
2022/02/12 01:37:04;;;;;;;2.20;1.50;;;;;;;;;;5113929;28;20032;-66
2022/02/12 01:39:30;;;;;;;6.15;2.25;;;;;;;;;;5113896;28;20107;-68
2022/02/12 01:41:57;;;;;;;5.45;2.50;;;;;;;;;;5113730;28;20070;-67
2022/02/12 01:44:33;;;;;;;6.40;2.97;;;;;;;;;;5113822;28;20026;-66
2022/02/12 01:47:00;;;;;;;5.80;2.50;;;;;;;;;;5095116;28;20028;-67
2022/02/12 01:49:28;;;;;;;3.42;2.00;;;;;;;;;;5113796;28;20055;-67
2022/02/12 01:51:54;;;;;;;3.42;1.35;;;;;;;;;;5095446;28;20032;-66
2022/02/12 01:54:20;;;;;;;7.47;2.75;;;;;;;;;;5113687;28;20026;-67
2022/02/12 01:56:47;;;;;;;5.10;2.35;;;;;;;;;;5113624;28;20020;-65
2022/02/12 01:59:14;;;;;;;6.85;2.38;;;;;;;;;;5113628;28;20110;-68
2022/02/12 02:01:40;;;;;;;3.10;2.00;;;;;;;;;;5095250;28;20472;-65
2022/02/12 02:04:06;;;;;;;4.88;2.33;;;;;;;;;;5095340;28;20031;-66
2022/02/12 02:06:33;;;;;;;4.13;1.60;;;;;;;;;;5095298;28;20031;-66
2022/02/12 02:09:03;;;;;;;3.47;1.75;;;;;;;;;;5113553;28;20031;-67
2022/02/12 02:11:30;;;;;;;2.28;1.23;;;;;;;;;;5113494;28;20023;-66
2022/02/12 02:13:56;;;;;;;3.92;1.63;;;;;;;;;;5094849;28;20188;-67
2022/02/12 02:16:22;;;;;;;3.25;1.63;;;;;;;;;;5113544;28;20034;-67
2022/02/12 02:18:48;;;;;;;1.92;1.38;;;;;;;;;;5095156;28;20028;-67
2022/02/12 02:21:17;;;;;;;3.38;1.52;;;;;;;;;;5113297;28;20119;-66
2022/02/12 02:23:43;;;;;;;2.97;1.55;;;;;;;;;;5113354;28;20039;-65
2022/02/12 02:26:11;;;;;;;3.92;1.90;;;;;;;;;;5113019;28;20410;-66
2022/02/12 02:28:38;;;;;;;9.77;2.67;;;;;;;;;;5113271;28;20176;-65
2022/02/12 02:31:04;;;;;;;2.95;2.05;;;;;;;;;;5113395;28;20055;-66
2022/02/12 02:33:30;;;;;;;4.50;1.38;;;;;;;;;;5095015;28;20079;-66
2022/02/12 02:35:56;;;;;;;2.88;1.85;;;;;;;;;;5113243;28;20027;-64
2022/02/12 02:38:24;;;;;;;3.08;1.75;;;;;;;;;;5113532;28;20050;-66
2022/02/12 02:40:50;;;;;;;3.75;2.20;;;;;;;;;;5095094;28;20372;-65
2022/02/12 02:43:16;;;;;;;2.80;1.90;;;;;;;;;;5113222;28;20114;-65
2022/02/12 02:45:43;;;;;;;5.22;2.35;;;;;;;;;;5113211;28;20023;-66
2022/02/12 02:48:09;;;;;;;3.50;2.00;;;;;;;;;;5113124;28;20052;-63
2022/02/12 02:56:10;;;;;;;2.17;1.92;;;;;;;;;;5112942;28;20089;-65
2022/02/12 02:58:46;;;;;;;5.38;2.90;;;;;;;;;;5095644;28;20027;-63
2022/02/12 03:01:13;;;;;;;4.18;2.63;;;;;;;;;;5098633;28;20114;-65
2022/02/12 03:03:40;;;;;;;4.47;2.33;;;;;;;;;;5098614;28;20039;-64
2022/02/12 03:06:07;;;;;;;4.35;1.80;;;;;;;;;;5116841;28;20022;-63
2022/02/12 03:08:34;;;;;;;5.13;2.38;;;;;;;;;;5116505;28;20579;-64
2022/02/12 03:11:00;;;;;;;4.10;2.22;;;;;;;;;;5117012;28;20036;-66
2022/02/12 03:13:26;;;;;;;6.75;2.72;;;;;;;;;;5098355;28;20016;-65
2022/02/12 03:15:53;;;;;;;6.38;2.50;;;;;;;;;;5116179;28;20122;-65
2022/02/12 03:18:19;;;;;;;3.42;2.20;;;;;;;;;;5115719;28;20019;-66
2022/02/12 03:20:45;;;;;;;4.70;3.03;;;;;;;;;;5116067;28;20042;-65
2022/02/12 03:23:11;;;;;;;5.28;2.47;;;;;;;;;;5116528;28;20112;-65
2022/02/12 03:25:38;;;;;;;5.15;2.38;;;;;;;;;;5116168;28;20156;-65
2022/02/12 03:28:05;;;;;;;4.32;2.47;;;;;;;;;;5116385;28;20474;-65
2022/02/12 03:30:32;;;;;;;4.93;2.65;;;;;;;;;;5116451;28;20032;-66
2022/02/12 03:32:58;;;;;;;5.00;2.97;;;;;;;;;;5116324;28;20532;-66
2022/02/12 03:35:28;;;;;;;5.45;3.13;;;;;;;;;;5116242;28;20080;-65
2022/02/12 03:37:55;;;;;;;7.70;3.15;;;;;;;;;;5116229;28;20024;-65
2022/02/12 03:40:21;;;;;;;7.50;3.00;;;;;;;;;;5116166;28;20035;-64
2022/02/12 03:42:48;;;;;;;11.38;3.58;;;;;;;;;;5116404;28;20106;-65
2022/02/12 03:45:14;;;;;;;6.35;2.58;;;;;;;;;;5116093;28;20452;-65
2022/02/12 03:47:40;;;;;;;8.70;2.63;;;;;;;;;;5116065;28;20093;-65
2022/02/12 03:50:07;;;;;;;5.55;3.10;;;;;;;;;;5116073;28;20026;-64
2022/02/12 03:52:33;;;;;;;6.95;3.22;;;;;;;;;;5097656;28;20046;-63
2022/02/12 03:54:59;;;;;;;6.75;2.65;;;;;;;;;;5115891;28;20020;-66
2022/02/12 03:57:26;;;;;;;3.78;2.58;;;;;;;;;;5115822;28;20460;-66
2022/02/12 03:59:52;;;;;;;9.98;2.60;;;;;;;;;;5115817;28;20051;-65
2022/02/12 04:02:18;;;;;;;5.60;2.10;;;;;;;;;;5097449;28;20403;-65
2022/02/12 04:04:44;;;;;;;4.63;2.10;;;;;;;;;;5115717;28;20089;-64
2022/02/12 04:07:11;;;;;;;4.10;2.22;;;;;;;;;;5097430;28;20396;-66
2022/02/12 04:09:38;;;;;;;3.53;2.10;;;;;;;;;;5115291;28;20055;-62
2022/02/12 04:12:04;;;;;;;2.30;1.85;;;;;;;;;;5115556;28;20042;-67
2022/02/12 04:14:30;;;;;;;4.40;2.10;;;;;;;;;;5115193;28;20561;-67
2022/02/12 04:16:56;;;;;;;3.63;2.28;;;;;;;;;;5115474;28;20104;-64
2022/02/12 04:19:23;;;;;;;7.28;1.75;;;;;;;;;;5115695;28;20024;-67
2022/02/12 04:21:49;;;;;;;2.85;2.08;;;;;;;;;;5115328;28;20111;-66
2022/02/12 04:24:15;;;;;;;5.78;1.88;;;;;;;;;;5115345;28;20066;-64
2022/02/12 04:26:41;;;;;;;3.40;2.03;;;;;;;;;;5097047;28;20379;-64
2022/02/12 04:29:07;;;;;;;3.92;1.98;;;;;;;;;;5115233;28;20110;-64
2022/02/12 04:31:34;;;;;;;3.50;1.95;;;;;;;;;;5115263;28;20019;-66
2022/02/12 04:34:00;;;;;;;3.45;1.50;;;;;;;;;;5115397;28;20460;-64
2022/02/12 04:36:26;;;;;;;4.32;1.90;;;;;;;;;;5115084;28;20073;-64
2022/02/12 04:38:53;;;;;;;5.28;1.90;;;;;;;;;;5115320;28;20080;-64
2022/02/12 04:41:19;;;;;;;4.53;2.20;;;;;;;;;;5096674;28;20023;-65
2022/02/12 04:43:45;;;;;;;4.65;2.20;;;;;;;;;;5114934;28;20062;-65
2022/02/12 04:46:11;;;;;;;2.33;2.13;;;;;;;;;;5115122;28;20035;-65
2022/02/12 04:48:38;;;;;;;3.50;1.88;;;;;;;;;;5114842;28;20020;-64
2022/02/12 04:51:04;;;;;;;5.13;2.40;;;;;;;;;;5114836;28;20036;-65
2022/02/12 04:53:30;;;;;;;5.30;1.80;;;;;;;;;;5114794;28;20024;-64
2022/02/12 04:55:56;;;;;;;4.07;2.38;;;;;;;;;;5114688;28;20531;-65
2022/02/12 04:58:22;;;;;;;8.00;2.78;;;;;;;;;;5114676;28;20559;-65
2022/02/12 05:00:49;;;;;;;4.88;2.55;;;;;;;;;;5114318;28;20033;-64
2022/02/12 05:03:15;;;;;;;4.95;2.72;;;;;;;;;;5114869;28;20119;-66
2022/02/12 05:05:41;;;;;;;3.45;2.20;;;;;;;;;;5114499;28;20035;-65
2022/02/12 05:08:08;;;;;;;3.35;2.10;;;;;;;;;;5114169;28;20429;-63
2022/02/12 05:10:35;;;;;;;3.65;1.92;;;;;;;;;;5114476;28;20023;-64
2022/02/12 05:13:01;;;;;;;3.70;2.30;;;;;;;;;;5095783;28;20031;-64
2022/02/12 05:15:27;;;;;;;6.85;2.30;;;;;;;;;;5093386;28;20071;-65
2022/02/12 05:17:54;;;;;;;8.90;3.45;;;;;;;;;;5114556;28;20038;-66
2022/02/12 05:20:20;;;;;;;5.15;3.08;;;;;;;;;;5114193;28;20028;-66
2022/02/12 05:22:47;;;;;;;8.60;3.33;;;;;;;;;;5113508;28;20028;-65
2022/02/12 05:25:13;;;;;;;6.05;3.35;;;;;;;;;;5114143;28;20020;-64
2022/02/12 05:27:39;;;;;;;6.90;3.53;;;;;;;;;;5095802;28;20063;-64
2022/02/12 05:30:06;;;;;;;7.45;3.00;;;;;;;;;;5114343;28;20527;-66
2022/02/12 05:32:32;;;;;;;7.28;3.17;;;;;;;;;;5095752;28;20498;-64
2022/02/12 05:34:59;;;;;;;8.45;3.60;;;;;;;;;;5095426;28;20024;-66
2022/02/12 05:37:25;;;;;;;6.85;3.17;;;;;;;;;;5113978;28;20027;-66
2022/02/12 05:39:51;;;;;;;7.03;2.90;;;;;;;;;;5095487;28;20020;-65
2022/02/12 05:42:17;;;;;;;4.10;2.30;;;;;;;;;;5113924;28;20036;-64
2022/02/12 05:44:44;;;;;;;6.00;2.90;;;;;;;;;;5113553;28;20479;-64
2022/02/12 05:47:10;;;;;;;7.38;3.42;;;;;;;;;;5095493;28;20027;-66
2022/02/12 05:49:36;;;;;;;7.18;3.63;;;;;;;;;;5113789;28;20455;-63
2022/02/12 05:52:02;;;;;;;7.80;4.20;;;;;;;;;;5113811;28;20024;-64
2022/02/12 05:54:29;;;;;;;5.57;4.00;;;;;;;;;;5113802;28;20019;-65
2022/02/12 05:56:55;;;;;;;9.43;5.75;;;;;;;;;;5113850;28;20027;-65
2022/02/12 05:59:21;;;;;;;13.55;5.72;;;;;;;;;;5095360;28;20376;-66
2022/02/12 06:01:47;;;;;;;12.13;4.43;;;;;;;;;;5095282;28;20388;-65
2022/02/12 06:04:14;;;;;;;12.95;3.75;;;;;;;;;;5095249;28;20035;-64
2022/02/12 06:06:40;;;;;;;8.30;3.45;;;;;;;;;;5095264;28;20034;-65
2022/02/12 06:09:06;;;;;;;8.57;3.42;;;;;;;;;;5113463;28;20023;-64
2022/02/12 06:11:32;;;;;;;11.70;4.10;;;;;;;;;;5095346;28;20063;-63
2022/02/12 06:13:58;;;;;;;9.65;4.88;;;;;;;;;;5094959;28;20569;-64
2022/02/12 06:16:25;;;;;;;9.90;4.25;;;;;;;;;;5113334;28;20051;-64
2022/02/12 06:18:51;;;;;;;9.30;3.60;;;;;;;;;;5094884;28;20028;-65
2022/02/12 06:21:17;;;;;;;10.32;3.75;;;;;;;;;;5113406;28;20031;-64
2022/02/12 06:23:44;;;;;;;16.58;5.13;;;;;;;;;;5113406;28;20039;-63
2022/02/12 06:26:11;;;;;;;19.13;5.20;;;;;;;;;;5095343;28;20375;-64
2022/02/12 06:28:37;;;;;;;41.35;18.17;;;;;;;;;;5113324;28;20078;-63
2022/02/12 06:31:04;;;;;;;20.02;7.32;;;;;;;;;;5113415;28;20114;-67
2022/02/12 06:33:30;;;;;;;18.95;7.50;;;;;;;;;;5115555;28;20132;-64
2022/02/12 06:35:57;;;;;;;17.17;7.13;;;;;;;;;;5099033;28;20478;-63
2022/02/12 06:38:23;;;;;;;17.10;7.70;;;;;;;;;;5117169;28;20364;-63
2022/02/12 06:40:50;;;;;;;14.60;7.50;;;;;;;;;;5117311;28;20032;-64
2022/02/12 06:43:16;;;;;;;12.93;6.80;;;;;;;;;;5117264;28;20032;-66
2022/02/12 06:45:42;;;;;;;12.73;6.22;;;;;;;;;;5117248;28;20106;-65
2022/02/12 06:48:08;;;;;;;13.65;6.93;;;;;;;;;;5096111;28;20066;-66
2022/02/12 06:50:35;;;;;;;15.85;8.65;;;;;;;;;;5077879;28;20153;-65
2022/02/12 06:53:01;;;;;;;18.23;8.65;;;;;;;;;;5096075;28;20028;-64
2022/02/12 06:55:27;;;;;;;33.40;16.50;;;;;;;;;;5096548;28;20025;-65
2022/02/12 06:57:54;;;;;;;43.10;11.13;;;;;;;;;;5096831;28;20082;-65
2022/02/12 07:00:20;;;;;;;26.17;10.95;;;;;;;;;;5096327;28;20032;-65
2022/02/12 07:02:51;;;;;;;15.02;8.15;;;;;;;;;;5096427;28;20051;-63
2022/02/12 07:05:18;;;;;;;13.05;7.25;;;;;;;;;;5096461;28;20115;-66
2022/02/12 07:07:48;;;;;;;14.45;7.47;;;;;;;;;;5096372;28;20028;-64
2022/02/12 07:10:15;;;;;;;12.70;6.90;;;;;;;;;;5096222;28;20020;-64
2022/02/12 07:12:41;;;;;;;20.95;13.90;;;;;;;;;;5078043;28;20420;-64
2022/02/12 07:15:08;;;;;;;29.00;7.93;;;;;;;;;;5096247;28;20041;-64
2022/02/12 07:17:39;;;;;;;24.38;10.00;;;;;;;;;;5096145;28;20095;-64
2022/02/12 07:20:06;;;;;;;24.90;11.70;;;;;;;;;;5096172;28;20032;-63
2022/02/12 07:22:33;;;;;;;24.73;11.43;;;;;;;;;;5095944;28;20024;-66
2022/02/12 07:24:59;;;;;;;36.00;13.60;;;;;;;;;;5096039;28;20047;-64
2022/02/12 07:27:25;;;;;;;32.78;13.43;;;;;;;;;;5077747;28;20025;-65
2022/02/12 07:29:51;;;;;;;29.25;13.00;;;;;;;;;;5077711;28;20035;-65
2022/02/12 07:32:18;;;;;;;18.25;8.82;;;;;;;;;;5077600;28;20085;-66
2022/02/12 07:34:45;;;;;;;15.93;6.40;;;;;;;;;;5095871;28;20028;-66
2022/02/12 07:37:11;;;;;;;10.13;5.38;;;;;;;;;;5077587;28;20035;-66
2022/02/12 07:39:37;;;;;;;10.48;5.70;;;;;;;;;;5095620;28;20020;-65
2022/02/12 07:42:04;;;;;;;10.25;6.80;;;;;;;;;;5095661;28;20107;-64
2022/02/12 07:44:30;;;;;;;29.65;15.23;;;;;;;;;;5076622;28;20035;-65
2022/02/12 07:46:56;;;;;;;73.10;31.88;;;;;;;;;;5077318;28;20433;-64
2022/02/12 07:49:22;;;;;;;43.47;22.05;;;;;;;;;;5077155;28;20389;-64
2022/02/12 07:51:51;;;;;;;54.35;27.88;;;;;;;;;;5095256;28;20032;-66
2022/02/12 07:54:17;;;;;;;18.88;8.70;;;;;;;;;;5095252;28;20035;-65
2022/02/12 07:56:43;;;;;;;46.10;22.75;;;;;;;;;;5077189;28;20473;-65
2022/02/12 07:59:09;;;;;;;44.20;19.40;;;;;;;;;;5095294;28;20059;-67
2022/02/12 08:01:35;;;;;;;35.70;15.23;;;;;;;;;;5098962;28;20103;-65
2022/02/12 08:04:01;;;;;;;31.23;16.40;;;;;;;;;;5084969;28;20039;-66
2022/02/12 08:09:12;;;;;;;19.15;7.10;;;;;;;;;;5095231;28;20081;-65
2022/02/12 08:11:40;;;;;;;10.95;5.20;;;;;;;;;;5093407;28;20103;-65
2022/02/12 08:14:06;;;;;;;55.85;24.80;;;;;;;;;;5094415;28;20099;-64
2022/02/12 08:16:32;;;;;;;11.30;6.03;;;;;;;;;;5076716;28;20055;-64
2022/02/12 08:18:58;;;;;;;8.23;4.00;;;;;;;;;;5076261;28;20111;-65
2022/02/12 08:21:25;;;;;;;8.00;4.45;;;;;;;;;;5094681;28;20064;-64
2022/02/12 08:23:51;;;;;;;4.68;3.28;;;;;;;;;;5093651;28;20080;-64
2022/02/12 08:26:17;;;;;;;17.00;7.82;;;;;;;;;;5094456;28;20361;-64
2022/02/12 08:28:43;;;;;;;13.50;7.10;;;;;;;;;;5094752;28;20020;-64
2022/02/12 08:31:10;;;;;;;10.40;4.50;;;;;;;;;;5092123;28;20020;-66
2022/02/12 08:33:36;;;;;;;12.23;4.55;;;;;;;;;;5096523;28;20487;-65
2022/02/12 08:36:03;;;;;;;6.88;3.30;;;;;;;;;;5076618;28;20024;-66
2022/02/12 08:38:29;;;;;;;5.05;3.38;;;;;;;;;;5092941;28;20024;-67
2022/02/12 08:40:56;;;;;;;19.80;7.00;;;;;;;;;;5093452;28;20438;-66
2022/02/12 08:43:22;;;;;;;11.95;5.45;;;;;;;;;;5094465;28;20111;-64
2022/02/12 08:45:49;;;;;;;14.48;7.30;;;;;;;;;;5076168;28;20099;-66
2022/02/12 08:48:15;;;;;;;41.13;8.65;;;;;;;;;;5094186;28;20037;-64
2022/02/12 08:50:41;;;;;;;28.77;11.52;;;;;;;;;;5092712;28;20115;-65
2022/02/12 08:53:07;;;;;;;7.60;4.55;;;;;;;;;;5096031;28;20049;-65
2022/02/12 08:55:33;;;;;;;13.15;8.60;;;;;;;;;;5113970;28;20023;-64
2022/02/12 08:58:00;;;;;;;9.50;5.53;;;;;;;;;;5113771;28;20035;-65
2022/02/12 09:00:26;;;;;;;11.73;5.93;;;;;;;;;;5114279;28;20111;-65
2022/02/12 09:02:52;;;;;;;11.60;4.47;;;;;;;;;;5114594;28;20059;-65
2022/02/12 09:05:20;;;;;;;6.82;4.30;;;;;;;;;;5114298;28;20079;-64
2022/02/12 09:07:46;;;;;;;9.75;4.60;;;;;;;;;;5095918;28;20474;-64
2022/02/12 09:10:12;;;;;;;9.43;4.72;;;;;;;;;;5095261;28;20020;-64
2022/02/12 09:12:38;;;;;;;11.57;5.28;;;;;;;;;;5075484;28;20035;-64
2022/02/12 09:15:05;;;;;;;10.70;4.20;;;;;;;;;;5093313;28;20055;-65
2022/02/12 09:17:31;;;;;;;21.33;8.20;;;;;;;;;;5093705;28;20392;-65
2022/02/12 09:19:58;;;;;;;15.60;9.15;;;;;;;;;;5093368;28;20361;-66
2022/02/12 09:22:25;;;;;;;14.27;5.45;;;;;;;;;;5093558;28;20028;-64
2022/02/12 09:24:51;;;;;;;12.45;6.57;;;;;;;;;;5074487;28;20050;-65
2022/02/12 09:27:18;;;;;;;11.60;7.38;;;;;;;;;;5093331;28;20076;-63
2022/02/12 09:29:44;;;;;;;7.45;5.00;;;;;;;;;;5093546;28;20449;-63
2022/02/12 09:32:11;;;;;;;10.70;4.65;;;;;;;;;;5093134;28;20024;-63
2022/02/12 09:34:38;;;;;;;10.88;4.90;;;;;;;;;;5093493;28;20026;-63
2022/02/12 09:37:04;;;;;;;6.40;3.83;;;;;;;;;;5075262;28;20024;-63
2022/02/12 09:39:30;;;;;;;6.32;3.70;;;;;;;;;;5075181;28;20362;-64
2022/02/12 09:41:57;;;;;;;11.10;4.30;;;;;;;;;;5092834;28;20067;-63
2022/02/12 09:44:23;;;;;;;10.32;3.97;;;;;;;;;;5093062;28;20453;-63
2022/02/12 09:47:08;;;;;;;9.43;4.63;;;;;;;;;;5075029;28;20123;-64
2022/02/12 09:49:34;;;;;;;8.40;4.72;;;;;;;;;;5093286;28;20031;-64
2022/02/12 09:52:02;;;;;;;11.45;5.50;;;;;;;;;;5074964;28;20077;-63
2022/02/12 09:54:29;;;;;;;7.45;4.88;;;;;;;;;;5092924;28;20020;-63
2022/02/12 09:56:55;;;;;;;9.68;4.75;;;;;;;;;;5093203;28;20024;-63
2022/02/12 09:59:21;;;;;;;12.05;4.50;;;;;;;;;;5093261;28;20016;-64
2022/02/12 10:01:48;;;;;;;8.50;4.65;;;;;;;;;;5093048;28;20026;-65
2022/02/12 10:04:19;;;;;;;8.98;4.68;;;;;;;;;;5075066;28;20032;-65
2022/02/12 10:06:47;;;;;;;7.50;4.70;;;;;;;;;;5093174;28;20016;-64
2022/02/12 10:09:13;;;;;;;8.90;4.93;;;;;;;;;;5092796;28;20107;-69
2022/02/12 10:11:44;;;;;;;10.15;4.82;;;;;;;;;;5093114;28;20034;-67
2022/02/12 10:14:11;;;;;;;7.93;4.80;;;;;;;;;;5092808;28;20055;-66
2022/02/12 10:16:53;;;;;;;8.85;5.40;;;;;;;;;;5093066;28;20240;-67
2022/02/12 10:19:27;;;;;;;10.02;5.25;;;;;;;;;;5092745;28;20024;-68
2022/02/12 10:22:04;;;;;;;7.40;5.13;;;;;;;;;;5073583;28;20032;-67
2022/02/12 10:24:46;;;;;;;13.63;5.80;;;;;;;;;;5092893;28;20032;-68
2022/02/12 10:27:12;;;;;;;9.00;5.63;;;;;;;;;;5074766;28;20029;-68
2022/02/12 10:29:39;;;;;;;40.38;19.70;;;;;;;;;;5092722;28;20441;-68
2022/02/12 10:32:05;;;;;;;9.00;5.30;;;;;;;;;;5074629;28;20059;-68
2022/02/12 10:34:38;;;;;;;15.82;5.28;;;;;;;;;;5092550;28;20121;-68
2022/02/12 10:37:04;;;;;;;9.38;5.30;;;;;;;;;;5092818;28;20020;-68
2022/02/12 10:39:30;;;;;;;9.02;5.00;;;;;;;;;;5074587;28;20386;-70
2022/02/12 10:42:07;;;;;;;9.13;5.18;;;;;;;;;;5092653;28;20165;-68
2022/02/12 10:44:33;;;;;;;8.20;4.88;;;13.00;99.90;;;;;;5092804;28;20020;-67
2022/02/12 10:47:00;;;;;;;9.13;5.00;;;13.50;69.10;;;;;;5092419;28;20373;-68
2022/02/12 10:49:26;;;;;;;8.15;4.18;;;;;;;;;;5074481;28;20028;-67
2022/02/12 10:51:52;;;;;;;8.10;4.30;;;;;;;;;;5074495;28;20123;-69
2022/02/12 10:54:19;;;;;;;5.30;4.18;;;;;;;;;;5074265;28;20112;-69
2022/02/12 10:56:53;;;;;;;7.75;4.38;;;;;;;;;;5092631;28;20020;-68
2022/02/12 10:59:20;;;;;;;4.70;3.42;;;;;;;;;;5092516;28;20031;-68
2022/02/12 11:01:47;;;;;;;3.45;2.80;;;14.40;66.70;;;;;;5092316;28;20109;-68
2022/02/12 11:04:15;;;;;;;8.52;3.63;;;14.70;59.20;;;;;;5074439;28;20538;-72
2022/02/12 11:06:43;;;;;;;8.20;4.10;;;;;;;;;;5092876;28;20024;-67
2022/02/12 11:09:10;;;;;;;7.03;4.22;;;;;;;;;;5092751;28;20020;-72
2022/02/12 11:11:36;;;;;;;7.63;3.65;;;;;;;;;;5092485;28;20113;-68
2022/02/12 11:14:02;;;;;;;54.58;26.38;;;15.90;61.30;;;;;;5073924;28;20130;-70
2022/02/12 11:16:28;;;;;;;16.55;6.82;;;16.60;58.70;;;;;;5092445;28;20112;-71
2022/02/12 11:18:55;;;;;;;13.93;4.90;;;;;;;;;;5092431;28;20119;-70
2022/02/12 11:21:23;;;;;;;16.70;8.52;;;15.60;58.80;;;;;;5095614;28;20058;-70
2022/02/12 11:24:02;;;;;;;12.18;4.63;;;13.90;62.40;;;;;;5096145;28;20047;-70
2022/02/12 11:26:28;;;;;;;10.23;4.07;;;;;;;;;;5077608;28;20482;-69
2022/02/12 11:28:54;;;;;;;7.10;4.63;;;13.40;63.50;;;;;;5077723;28;20020;-68
2022/02/12 11:31:22;;;;;;;5.68;4.10;;;;;;;;;;5095863;28;20032;-70
2022/02/12 11:34:17;;;;;;;7.65;3.58;;;;;;;;;;5095913;28;20020;-70
2022/02/12 11:36:45;;;;;;;8.45;4.05;;;;;;;;;;5092873;28;20032;-68
2022/02/12 11:39:13;;;;;;;7.53;4.50;;;;;;;;;;5095664;28;20020;-69
2022/02/12 11:41:41;;;;;;;9.48;4.97;;;;;;;;;;5095639;28;20198;-69
2022/02/12 11:44:07;;;;;;;6.03;3.92;;;17.00;56.80;;;;;;5095744;28;20107;-69
2022/02/12 11:46:51;;;;;;;9.43;4.25;;;21.50;48.10;;;;;;5095594;28;20028;-68
2022/02/12 11:49:40;;;;;;;13.95;8.70;;;19.00;50.90;;;;;;5095542;28;20028;-68
2022/02/12 11:52:06;;;;;;;68.75;34.65;;;;;;;;;;5077470;28;20036;-68
2022/02/12 11:54:44;;;;;;;44.35;23.25;;;17.30;53.70;;;;;;5095552;28;20020;-69
2022/02/12 11:57:11;;;;;;;55.80;25.65;;;;;;;;;;5095446;28;20380;-70
2022/02/12 11:59:37;;;;;;;24.25;13.98;;;;;;;;;;5095357;28;20024;-71
2022/02/12 12:02:03;;;;;;;12.10;7.38;;;;;;;;;;5095277;28;20031;-69
2022/02/12 12:04:32;;;;;;;8.05;4.43;;;16.90;56.10;;;;;;5095017;28;20488;-69
2022/02/12 12:07:25;;;;;;;9.45;4.88;;;;;;;;;;5093404;28;20016;-69
2022/02/12 12:09:54;;;;;;;11.23;4.65;;;17.40;54.40;;;;;;5101531;28;20446;-69
2022/02/12 12:12:21;;;;;;;9.13;4.28;;;;;;;;;;5115340;28;20092;-69
2022/02/12 12:14:48;;;;;;;12.93;5.95;;;;;;;;;;5115248;28;20043;-69
2022/02/12 12:17:15;;;;;;;5.38;4.60;;;;;;;;;;5115464;28;20098;-70
2022/02/12 12:19:52;;;;;;;8.38;4.97;;;16.60;57.40;;;;;;5115339;28;20472;-70
2022/02/12 12:22:18;;;;;;;56.25;23.73;;;14.70;60.10;;;;;;5115282;28;20027;-70
2022/02/12 12:24:44;;;;;;;39.17;17.95;;;14.50;62.50;;;;;;5092679;28;20028;-71
2022/02/12 12:27:14;;;;;;;69.07;29.67;;;14.00;60.10;;;;;;5093606;28;20372;-69
2022/02/12 12:32:31;;;;;;;9.90;4.40;;;;;;;;;;5094513;28;20043;-69
2022/02/12 12:35:04;;;;;;;7.10;3.78;;;13.70;69.30;;;;;;5094819;28;20111;-69
2022/02/12 12:37:48;;;;;;;29.02;13.43;;;13.50;61.70;;;;;;5095058;28;20419;-70
2022/02/12 12:40:15;;;;;;;9.45;5.07;;;13.60;62.20;;;;;;5094705;28;20420;-67
2022/02/12 12:42:41;;;;;;;7.03;4.65;;;13.50;62.70;;;;;;5092999;28;20032;-67
2022/02/12 12:45:11;;;;;;;6.65;4.53;;;13.60;62.60;;;;;;5094250;28;20039;-68
2022/02/12 12:47:58;;;;;;;6.57;4.90;;;13.50;64.50;;;;;;5094472;28;20061;-69
2022/02/12 12:50:24;;;;;;;5.28;3.67;;;13.50;63.20;;;;;;5092934;28;20077;-70
2022/02/12 12:53:01;;;;;;;6.13;4.40;;;13.90;63.30;;;;;;5094220;28;20028;-67
2022/02/12 12:55:27;;;;;;;7.78;4.72;;;14.00;63.00;;;;;;5094365;28;20047;-69
2022/02/12 12:57:54;;;;;;;14.35;7.20;;;;;;;;;;5092798;28;20468;-71
2022/02/12 13:00:23;;;;;;;9.82;5.72;;;14.40;61.80;;;;;;5094095;28;20467;-72
2022/02/12 13:02:56;;;;;;;10.02;4.60;;;14.80;58.70;;;;;;5093771;28;20035;-70
2022/02/12 13:05:30;;;;;;;5.72;3.50;;;15.00;57.50;;;;;;5094376;28;20059;-69
2022/02/12 13:08:07;;;;;;;8.05;4.32;;;14.70;58.70;;;;;;5094381;28;20024;-70
2022/02/12 13:10:35;;;;;;;7.75;4.28;;;14.30;58.90;;;;;;5093595;28;20409;-70
2022/02/12 13:13:16;;;;;;;9.60;5.30;;;14.10;58.50;;;;;;5092457;28;20032;-73
2022/02/12 13:15:43;;;;;;;11.57;5.05;;;;;;;;;;5093801;28;20047;-71
2022/02/12 13:18:10;;;;;;;9.80;5.65;;;;;;;;;;5092562;28;20016;-70
2022/02/12 13:20:36;;;;;;;6.28;4.75;;;;;;;;;;5093655;28;20032;-69
2022/02/12 13:23:04;;;;;;;6.00;3.60;;;;;;;;;;5093798;28;20103;-67
2022/02/12 13:25:31;;;;;;;6.35;4.10;;;;;;;;;;5093747;28;20024;-72
2022/02/12 13:27:58;;;;;;;4.30;3.78;;;14.50;59.10;;;;;;5093865;28;20024;-72
2022/02/12 13:30:29;;;;;;;6.03;4.13;;;17.60;53.20;;;;;;5093662;28;20028;-68
2022/02/12 13:32:56;;;;;;;8.57;3.43;;;18.20;52.90;;;;;;5093776;28;20468;-68
2022/02/12 13:35:24;;;;;;;5.57;4.35;;;19.50;52.40;;;;;;5092213;28;20272;-67
2022/02/12 13:37:55;;;;;;;7.35;4.18;;;18.70;52.50;;;;;;5093521;28;20395;-69
2022/02/12 13:40:25;;;;;;;6.47;3.85;;;18.50;51.50;;;;;;5092137;28;20020;-68
2022/02/12 13:42:59;;;;;;;6.65;4.30;;;;;;;;;;5074685;28;20032;-68
2022/02/12 13:45:27;;;;;;;5.78;4.40;;;;;;;;;;5101674;28;20476;-68
2022/02/12 13:48:04;;;;;;;8.15;4.72;;;18.20;52.70;;;;;;5084603;28;20024;-69
2022/02/12 13:50:33;;;;;;;8.88;4.43;;;;;;;;;;5093548;28;20469;-67
2022/02/12 13:53:04;;;;;;;6.93;5.03;;;14.90;55.20;;;;;;5101426;28;20039;-68
2022/02/12 13:55:30;;;;;;;;;;;;;;;;;;5114010;28;20027;-68
2022/02/12 13:57:56;;;;;;;11.70;6.78;;;13.60;60.90;;;;;;5095135;28;20366;-67
2022/02/12 14:00:22;;;;;;;8.90;6.18;;;13.50;61.50;;;;;;5113404;28;20035;-67
2022/02/12 14:02:53;;;;;;;10.30;5.43;;;13.60;62.70;;;;;;5113321;28;20035;-67
2022/02/12 14:05:20;;;;;;;8.68;4.65;;;13.40;61.60;;;;;;5113611;28;20035;-70
2022/02/12 14:07:46;;;;;;;6.47;4.10;;;13.60;60.60;;;;;;5113420;28;20031;-67
2022/02/12 14:10:13;;;;;;;8.75;5.63;;;;;;;;;;5113476;28;20028;-66
2022/02/12 14:12:39;;;;;;;15.60;4.85;;;13.60;59.20;;;;;;5113326;28;20751;-64
2022/02/12 14:15:06;;;;;;;6.38;4.70;;;13.00;61.80;;;;;;5113025;28;20126;-65
2022/02/12 14:17:32;;;;;;;9.55;5.18;;;12.80;62.50;;;;;;5113366;28;20019;-64
2022/02/12 14:19:58;;;;;;;5.47;3.47;;;12.60;62.40;;;;;;5113084;28;20476;-66
2022/02/12 14:22:24;;;;;;;8.02;5.10;;;12.50;64.30;;;;;;5113190;28;20050;-64
2022/02/12 14:24:50;;;;;;;6.38;3.83;;;12.70;79.20;;;;;;5113080;28;20470;-66
2022/02/12 14:27:17;;;;;;;6.50;3.58;;;12.80;61.20;;;;;;5113135;28;20093;-65
2022/02/12 14:29:43;;;;;;;7.43;5.57;;;12.80;63.20;;;;;;5094842;28;20028;-65